Barstow Daggett Airport
KDAG : now visible

Airfield :











YOU CAN JOIN US ON...

 
LOGIN :

Register | Disclaimer

   EN    FR    IT 

 









Legend :    VFR   Marginal VFR   IFR   Intensive IFR   Very Intensive IFR
Visi :
Ceiling :
>= 8 km
>= 3000ft
5 to 8 km
1000 to 3000 ft
1500m to 5 km
500 to 1000 ft
800 to 1500m
200 to 500 ft
< 800m
< 200 ft
Symbols :   Thunderstorms  Fog  Heavy snow  Heavy precipitations  Wind > 20 kt






- Airport Elevation : 1930 ft


KDAG - Barstow Daggett

CURRENT METAR :
  • 042150Z AUTO 22010KT 10SM CLR 39/01 A2985 RMK AO2 SLP076 T03940011

EXPIRED METARs :
  • 042050Z AUTO 23011G18KT 10SM CLR 39/03 A2987 RMK AO2 SLP082 T03940028 58018
  • 041950Z AUTO 27012G22KT 10SM CLR 38/03 A2990 RMK AO2 WSHFT 1858 SLP092 T03830028

TAF KDAG
Valid from the 04 at 18:00 until the 05 at 18:00 UTC


041729Z 0418/0518 28013G21KT P6SM SKC
FM050100 26018G28KT P6SM SKC
FM050700 25012KT P6SM SKC
KZLA FIR / North America



MET'MAP, your aeronautical weather chart ! - Copyright ORBIFLY December 2007 - Disclaimer

ORBIFLY MET'MAP TEAM :

Programming & Development : Alexandra Zaïnal
Concept & original design : Baudouin d'Aumeries
Assistance for programming : Marc-Olivier Méhu
Technical & hardware support : Manuel Goepfert

Contact : metmap@orbifly.com




SOURCES & CREDITS :

   NOAA       Earth
Advisory